Gould, Oklahoma
Current Conditions -  °F | °C
As of 3:55 AM on Friday 28 Nov 2014 (Local Time) from KAXS Reporting Station
Clear Clear  
Wind Chill: 32°   Ceiling: Unl
Heat Index: 38°   Visibility: 10mi
Dew Point: 32°   Wind: 9mph
Humidity: 78%   Direction: 150°SSE
Pressure: 30.19"   Gusts: NA
Location:  34.67°N, 99.77°W
Report Text: KAXS 280955Z AUTO 15008KT 10SM CLR 04/00 A3019 RMK AO2 T00350000
Loading
Personal Weather Stations






























Interactive Weather Map New forecast layout! Learn more

10-Day Weather Forecast

Advertisements
Track Severe Weather on mobile